Time;durP1;ratioP1;P1;durP2;ratioP2;P2;SDS_P1;SDS_P2;PMS_P1;PMS_P2;Temp;Humidity;BMP_temperature;BMP_pressure;BME280_temperature;BME280_humidity;BME280_pressure;Samples;Min_cycle;Max_cycle;Signal;HPM_P1;HPM_P2
2021/07/07 00:01:14;;;;;;;12.43;11.23;;;23.50;70.60;;;;;;5073813;28;20165;-81
2021/07/07 00:03:40;;;;;;;13.25;11.95;;;23.50;70.60;;;;;;5106900;28;20192;-80
2021/07/07 00:06:06;;;;;;;12.93;11.63;;;23.40;70.50;;;;;;5089333;28;20178;-80
2021/07/07 00:08:32;;;;;;;13.02;11.70;;;23.40;70.50;;;;;;5072956;28;20176;-81
2021/07/07 00:10:58;;;;;;;13.43;12.02;;;23.50;70.50;;;;;;5073650;28;20146;-81
2021/07/07 00:13:24;;;;;;;13.00;11.68;;;23.50;70.50;;;;;;5106261;28;20161;-81
2021/07/07 00:15:50;;;;;;;12.93;11.63;;;23.50;70.50;;;;;;5106215;28;20172;-80
2021/07/07 00:18:16;;;;;;;13.52;12.23;;;23.50;70.60;;;;;;5105998;28;20656;-81
2021/07/07 00:20:47;;;;;;;13.10;11.80;;;23.50;70.50;;;;;;5073838;28;20161;-80
2021/07/07 00:23:12;;;;;;;13.93;12.43;;;23.50;70.60;;;;;;5071685;28;20691;-81
2021/07/07 00:25:38;;;;;;;13.90;12.48;;;23.40;70.50;;;;;;5106248;28;20161;-80
2021/07/07 00:28:04;;;;;;;13.57;12.18;;;23.40;70.50;;;;;;5106012;28;20162;-81
2021/07/07 00:30:30;;;;;;;13.43;12.02;;;23.40;70.50;;;;;;5088898;28;20153;-80
2021/07/07 00:32:56;;;;;;;13.20;11.90;;;23.40;70.60;;;;;;5105851;28;20157;-80
2021/07/07 00:35:21;;;;;;;12.48;11.23;;;23.40;70.60;;;;;;5106046;28;20196;-81
2021/07/07 00:37:47;;;;;;;13.43;12.13;;;23.40;70.60;;;;;;5072071;28;20197;-81
2021/07/07 00:40:13;;;;;;;13.57;12.18;;;23.40;70.60;;;;;;5073355;28;20172;-79
2021/07/07 00:42:39;;;;;;;13.50;12.10;;;23.40;70.60;;;;;;5105688;28;20231;-81
2021/07/07 00:45:05;;;;;;;13.07;11.77;;;23.50;70.60;;;;;;5088762;28;20248;-80
2021/07/07 00:47:31;;;;;;;13.75;12.15;;;23.40;70.60;;;;;;5073530;28;20173;-81
2021/07/07 00:49:57;;;;;;;13.75;12.35;;;23.40;70.60;;;;;;5073402;28;20207;-80
2021/07/07 00:52:24;;;;;;;13.20;11.90;;;23.40;70.60;;;;;;5105601;28;20154;-80
2021/07/07 00:54:51;;;;;;;14.32;12.82;;;23.40;70.60;;;;;;5064253;28;20222;-81
2021/07/07 00:57:19;;;;;;;13.32;12.00;;;23.40;70.60;;;;;;5047648;28;20206;-80
2021/07/07 00:59:46;;;;;;;13.27;11.88;;;23.40;70.60;;;;;;5047789;28;20206;-79
2021/07/07 01:02:16;;;;;;;13.23;11.82;;;23.40;70.60;;;;;;5047976;28;20197;-80
2021/07/07 01:04:43;;;;;;;13.45;12.15;;;23.40;70.70;;;;;;5031074;28;21108;-81
2021/07/07 01:07:10;;;;;;;13.43;12.07;;;23.50;70.70;;;;;;5047376;28;20187;-81
2021/07/07 01:09:36;;;;;;;13.27;11.88;;;23.40;70.60;;;;;;5064006;28;20182;-80
2021/07/07 01:12:02;;;;;;;13.05;11.77;;;23.40;70.60;;;;;;5033015;28;20216;-81
2021/07/07 01:14:27;;;;;;;13.82;12.43;;;23.40;70.60;;;;;;5032934;28;20158;-81
2021/07/07 01:16:53;;;;;;;13.27;11.98;;;23.40;70.60;;;;;;5033095;28;20163;-81
2021/07/07 01:19:19;;;;;;;13.35;11.95;;;23.40;70.50;;;;;;5048375;28;20185;-79
2021/07/07 01:21:46;;;;;;;13.80;12.35;;;23.40;70.60;;;;;;5032915;28;20606;-81
2021/07/07 01:24:13;;;;;;;13.25;11.88;;;23.40;70.70;;;;;;5033246;28;20325;-79
2021/07/07 01:26:39;;;;;;;13.48;12.13;;;23.40;70.70;;;;;;5033320;28;20163;-80
2021/07/07 01:29:04;;;;;;;13.25;11.88;;;23.40;70.60;;;;;;5032769;28;20242;-80
2021/07/07 01:31:32;;;;;;;13.50;12.10;;;23.40;70.70;;;;;;5033035;28;20246;-80
2021/07/07 01:33:59;;;;;;;13.80;12.40;;;23.40;70.60;;;;;;5047509;28;20194;-79
2021/07/07 01:36:26;;;;;;;13.18;11.88;;;23.40;70.70;;;;;;5047180;28;20202;-80
2021/07/07 01:38:53;;;;;;;14.10;12.70;;;23.40;70.60;;;;;;5064170;28;20268;-80
2021/07/07 01:41:20;;;;;;;13.50;12.20;;;23.40;70.60;;;;;;5047597;28;20187;-80
2021/07/07 01:43:47;;;;;;;13.40;12.07;;;23.40;70.70;;;;;;5064128;28;20722;-80
2021/07/07 01:46:14;;;;;;;13.73;12.32;;;23.30;70.70;;;;;;5047494;28;20290;-81
2021/07/07 01:48:39;;;;;;;13.57;12.18;;;23.40;70.80;;;;;;5064181;28;20261;-81
2021/07/07 01:51:05;;;;;;;13.30;11.90;;;23.40;70.80;;;;;;5049437;28;20654;-81
2021/07/07 01:53:31;;;;;;;13.48;12.13;;;23.40;70.80;;;;;;5048429;28;20691;-81
2021/07/07 01:55:57;;;;;;;13.70;12.30;;;23.40;70.80;;;;;;5092052;28;20162;-80
2021/07/07 01:58:22;;;;;;;13.27;11.93;;;23.30;70.70;;;;;;5076033;28;20185;-83
2021/07/07 02:00:48;;;;;;;13.75;12.32;;;23.40;70.70;;;;;;5091972;28;20180;-80
2021/07/07 02:03:13;;;;;;;14.05;12.65;;;23.30;70.70;;;;;;5076051;28;20551;-80
2021/07/07 02:05:39;;;;;;;13.65;12.25;;;23.30;70.80;;;;;;5076323;28;20168;-80
2021/07/07 02:08:07;;;;;;;13.68;12.27;;;23.40;70.80;;;;;;5076274;28;20532;-81
2021/07/07 02:10:33;;;;;;;13.85;12.45;;;23.40;70.90;;;;;;5108620;28;20153;-80
2021/07/07 02:12:59;;;;;;;13.85;12.45;;;23.30;70.80;;;;;;5075961;28;20158;-80
2021/07/07 02:15:27;;;;;;;13.05;11.75;;;23.30;70.80;;;;;;5108401;28;20632;-81
2021/07/07 02:17:53;;;;;;;13.18;11.88;;;23.30;70.90;;;;;;5108402;28;20186;-80
2021/07/07 02:20:19;;;;;;;12.52;11.25;;;23.30;70.70;;;;;;5108446;28;20160;-81
2021/07/07 02:22:45;;;;;;;13.32;12.02;;;23.30;71.60;;;;;;5075739;28;20520;-81
2021/07/07 02:25:13;;;;;;;13.60;12.20;;;23.30;70.80;;;;;;5108467;28;20154;-80
2021/07/07 02:27:39;;;;;;;14.13;12.63;;;23.30;70.90;;;;;;5075628;28;20670;-81
2021/07/07 02:30:08;;;;;;;13.80;12.35;;;23.30;70.80;;;;;;5091180;28;20157;-80
2021/07/07 02:32:33;;;;;;;14.25;12.75;;;23.30;70.80;;;;;;5075617;28;20181;-81
2021/07/07 02:34:59;;;;;;;13.73;12.38;;;23.30;70.70;;;;;;5108235;28;20166;-81
2021/07/07 02:37:25;;;;;;;14.02;12.45;;;23.30;70.70;;;;;;5090922;28;20196;-80
2021/07/07 02:39:50;;;;;;;14.15;12.48;;;23.30;70.70;;;;;;5108078;28;20522;-81
2021/07/07 02:42:16;;;;;;;13.85;12.45;;;23.30;70.70;;;;;;5075291;28;20159;-80
2021/07/07 02:44:43;;;;;;;13.55;12.20;;;23.30;70.70;;;;;;5108066;28;20215;-80
2021/07/07 02:47:09;;;;;;;13.77;12.38;;;23.30;70.70;;;;;;5107919;28;20518;-80
2021/07/07 02:49:36;;;;;;;13.35;12.02;;;23.30;70.80;;;;;;5108181;28;20165;-81
2021/07/07 02:52:04;;;;;;;14.10;12.60;;;23.30;70.70;;;;;;5090011;28;20184;-81
2021/07/07 02:54:30;;;;;;;13.88;12.48;;;23.40;70.80;;;;;;5072660;28;20233;-81
2021/07/07 02:56:56;;;;;;;14.05;12.55;;;23.30;70.70;;;;;;5075005;28;20157;-79
2021/07/07 02:59:21;;;;;;;14.50;13.00;;;23.30;70.70;;;;;;5075343;28;20161;-79
2021/07/07 03:01:47;;;;;;;13.30;11.95;;;23.30;70.80;;;;;;5074834;28;20551;-80
2021/07/07 03:04:12;;;;;;;13.30;12.00;;;23.30;70.90;;;;;;5073444;28;20176;-81
2021/07/07 03:06:40;;;;;;;13.73;12.32;;;23.30;70.80;;;;;;5074927;28;20671;-81
2021/07/07 03:09:08;;;;;;;14.13;12.73;;;23.30;70.70;;;;;;5089837;28;20181;-81
2021/07/07 03:11:35;;;;;;;14.65;13.13;;;23.30;70.70;;;;;;5090010;28;20240;-80
2021/07/07 03:14:02;;;;;;;13.98;12.52;;;23.30;70.80;;;;;;5072623;28;20177;-79
2021/07/07 03:16:28;;;;;;;13.50;12.10;;;23.30;70.80;;;;;;5072655;28;20182;-81
2021/07/07 03:18:55;;;;;;;14.10;12.63;;;23.30;70.70;;;;;;5074624;28;20190;-81
2021/07/07 03:21:23;;;;;;;14.13;12.68;;;23.30;70.80;;;;;;5089243;28;20525;-81
2021/07/07 03:23:50;;;;;;;14.10;12.63;;;23.30;70.80;;;;;;5056222;28;20189;-79
2021/07/07 03:26:18;;;;;;;13.88;12.25;;;23.30;70.70;;;;;;5089354;28;20193;-80
2021/07/07 03:28:47;;;;;;;14.52;13.05;;;23.30;70.80;;;;;;5072745;28;20185;-80
2021/07/07 03:31:15;;;;;;;13.70;12.30;;;23.30;70.90;;;;;;5072629;28;20182;-81
2021/07/07 03:33:42;;;;;;;13.07;11.77;;;23.30;70.90;;;;;;5089427;28;20286;-80
2021/07/07 03:36:10;;;;;;;13.82;12.32;;;23.30;70.90;;;;;;5072287;28;20177;-80
2021/07/07 03:38:37;;;;;;;13.80;12.45;;;23.30;70.90;;;;;;5089301;28;20217;-79
2021/07/07 03:41:04;;;;;;;13.15;11.77;;;23.30;70.90;;;;;;5089193;28;20181;-79
2021/07/07 03:43:32;;;;;;;13.70;12.18;;;23.30;70.80;;;;;;5088798;28;20186;-80
2021/07/07 03:45:59;;;;;;;14.27;12.80;;;23.30;71.00;;;;;;5089604;28;20542;-81
2021/07/07 03:48:25;;;;;;;14.23;12.77;;;23.30;70.70;;;;;;5089170;28;20185;-79
2021/07/07 03:50:51;;;;;;;14.02;12.52;;;23.30;70.70;;;;;;5106697;28;20160;-81
2021/07/07 03:53:16;;;;;;;13.25;11.95;;;23.30;70.90;;;;;;5089652;28;20264;-81
2021/07/07 03:55:42;;;;;;;12.98;11.68;;;23.30;70.80;;;;;;5074179;28;20173;-79
2021/07/07 03:58:07;;;;;;;13.65;12.25;;;23.20;70.90;;;;;;5073864;28;20192;-80
2021/07/07 04:00:34;;;;;;;13.75;12.35;;;23.20;71.80;;;;;;5074030;28;20177;-80
2021/07/07 04:03:00;;;;;;;13.98;12.52;;;23.30;70.90;;;;;;5074421;28;20167;-80
2021/07/07 04:05:26;;;;;;;13.60;12.20;;;23.30;71.00;;;;;;5073803;28;20597;-79
2021/07/07 04:07:52;;;;;;;13.68;12.25;;;23.20;70.90;;;;;;5106661;28;20166;-80
2021/07/07 04:10:18;;;;;;;13.80;12.40;;;23.20;70.80;;;;;;5073723;28;20211;-80
2021/07/07 04:12:44;;;;;;;13.50;12.10;;;23.20;70.80;;;;;;5073867;28;20166;-80
2021/07/07 04:15:10;;;;;;;13.27;11.88;;;23.30;71.00;;;;;;5088792;28;20161;-81
2021/07/07 04:17:37;;;;;;;11.98;10.77;;;23.30;70.90;;;;;;5106579;28;20203;-80
2021/07/07 04:20:05;;;;;;;11.90;10.70;;;23.30;70.70;;;;;;5073803;28;20153;-80
2021/07/07 04:22:30;;;;;;;12.48;11.18;;;23.30;70.70;;;;;;5106215;28;20149;-79
2021/07/07 04:24:56;;;;;;;11.80;10.60;;;23.30;70.60;;;;;;5106052;28;20157;-81
2021/07/07 04:27:22;;;;;;;11.05;9.95;;;23.30;70.70;;;;;;5072095;28;20608;-81
2021/07/07 04:29:47;;;;;;;10.90;9.82;;;23.30;70.90;;;;;;5072289;28;20513;-79
2021/07/07 04:32:16;;;;;;;10.95;9.95;;;23.20;71.20;;;;;;5073596;28;20299;-80
2021/07/07 04:34:42;;;;;;;10.60;9.50;;;23.20;71.60;;;;;;5073599;28;20180;-80
2021/07/07 04:37:07;;;;;;;10.45;9.45;;;23.20;72.00;;;;;;5073325;28;20652;-81
2021/07/07 04:39:33;;;;;;;9.77;8.88;;;23.10;72.20;;;;;;5073289;28;20203;-80
2021/07/07 04:41:59;;;;;;;10.38;9.38;;;23.10;72.70;;;;;;5072127;28;20518;-81
2021/07/07 04:44:24;;;;;;;9.95;9.05;;;23.00;72.90;;;;;;5073284;28;20184;-80
2021/07/07 04:46:50;;;;;;;10.52;9.43;;;23.00;73.20;;;;;;5073194;28;20150;-80
2021/07/07 04:49:17;;;;;;;10.05;8.98;;;23.00;73.40;;;;;;5073226;28;20149;-80
2021/07/07 04:51:43;;;;;;;9.50;8.60;;;23.00;73.80;;;;;;5054661;28;20178;-80
2021/07/07 04:54:09;;;;;;;9.60;8.60;;;22.90;74.00;;;;;;5054132;28;20217;-80
2021/07/07 04:56:36;;;;;;;9.50;8.60;;;22.90;74.30;;;;;;5073286;28;20161;-79
2021/07/07 04:59:01;;;;;;;9.75;8.77;;;22.90;74.50;;;;;;5072985;28;20189;-80
2021/07/07 05:01:27;;;;;;;10.23;9.20;;;22.90;74.90;;;;;;5073058;28;20594;-80
2021/07/07 05:03:53;;;;;;;9.75;8.75;;;22.90;75.20;;;;;;5073089;28;20153;-80
2021/07/07 05:06:18;;;;;;;9.32;8.43;;;22.80;75.30;;;;;;5071832;28;20505;-81
2021/07/07 05:08:44;;;;;;;9.73;8.73;;;22.80;75.80;;;;;;5073057;28;20153;-81
2021/07/07 05:11:10;;;;;;;9.65;8.68;;;22.80;76.00;;;;;;5073218;28;20168;-80
2021/07/07 05:13:36;;;;;;;8.93;8.07;;;22.80;76.30;;;;;;5071768;28;20232;-80
2021/07/07 05:16:02;;;;;;;9.15;8.32;;;22.80;76.60;;;;;;5038491;28;20154;-81
2021/07/07 05:18:28;;;;;;;9.40;8.50;;;22.70;76.70;;;;;;5072699;28;20235;-81
2021/07/07 05:20:53;;;;;;;9.10;8.20;;;22.70;77.10;;;;;;5072807;28;20154;-82
2021/07/07 05:23:19;;;;;;;8.88;8.07;;;22.70;77.40;;;;;;5072839;28;20241;-80
2021/07/07 05:25:45;;;;;;;9.77;8.77;;;22.70;77.60;;;;;;5073776;28;20157;-82
2021/07/07 05:28:12;;;;;;;8.32;7.53;;;22.70;77.80;;;;;;5059060;28;20173;-80
2021/07/07 05:30:38;;;;;;;9.35;8.45;;;22.60;78.00;;;;;;5076747;28;20210;-80
2021/07/07 05:33:06;;;;;;;9.65;8.65;;;22.70;78.40;;;;;;5076652;28;20162;-81
2021/07/07 05:35:32;;;;;;;9.07;8.27;;;22.70;78.60;;;;;;5076990;28;20169;-81
2021/07/07 05:37:57;;;;;;;9.00;8.10;;;22.60;78.90;;;;;;5076567;28;20546;-81
2021/07/07 05:40:23;;;;;;;9.30;8.32;;;22.60;79.00;;;;;;5075419;28;20153;-81
2021/07/07 05:42:52;;;;;;;8.80;8.00;;;22.60;79.30;;;;;;5076560;28;20146;-80
2021/07/07 05:45:20;;;;;;;9.15;8.25;;;22.60;79.40;;;;;;5076531;28;20158;-80
2021/07/07 05:47:46;;;;;;;9.20;8.30;;;22.60;79.50;;;;;;5076562;28;20162;-80
2021/07/07 05:50:12;;;;;;;8.55;7.75;;;22.60;79.60;;;;;;5076306;28;20153;-79
2021/07/07 05:52:37;;;;;;;8.60;7.80;;;22.60;79.90;;;;;;5076221;28;20499;-81
2021/07/07 05:55:05;;;;;;;8.98;8.07;;;22.60;80.10;;;;;;5076101;28;20223;-80
2021/07/07 05:57:39;;;;;;;8.77;7.97;;;22.60;80.40;;;;;;5057449;28;20209;-81
2021/07/07 06:00:18;;;;;;;8.30;7.50;;;22.50;80.50;;;;;;5058791;28;20194;-80
2021/07/07 06:02:47;;;;;;;9.35;8.35;;;22.50;80.70;;;;;;5058055;28;20623;-80
2021/07/07 06:05:14;;;;;;;8.82;7.93;;;22.50;80.80;;;;;;5057740;28;20185;-80
2021/07/07 06:07:40;;;;;;;9.02;8.13;;;22.50;81.00;;;;;;5057372;28;20641;-79
2021/07/07 06:10:08;;;;;;;8.52;7.72;;;22.60;81.10;;;;;;5075143;28;20180;-80
2021/07/07 06:12:34;;;;;;;9.02;8.13;;;22.50;81.50;;;;;;5074732;28;20639;-80
2021/07/07 06:15:03;;;;;;;8.80;8.00;;;22.60;81.60;;;;;;5074578;28;20165;-81
2021/07/07 06:17:31;;;;;;;8.98;8.07;;;22.50;81.80;;;;;;5057304;28;20213;-80
2021/07/07 06:19:59;;;;;;;9.13;8.20;;;22.50;82.20;;;;;;5057116;28;20185;-80
2021/07/07 06:22:25;;;;;;;9.00;8.10;;;22.50;82.60;;;;;;5060903;28;20211;-80
2021/07/07 06:24:51;;;;;;;9.50;8.60;;;22.50;82.90;;;;;;5094070;28;20204;-81
2021/07/07 06:27:17;;;;;;;9.18;8.38;;;22.50;83.00;;;;;;5091725;27;20287;-80
2021/07/07 06:29:44;;;;;;;9.18;8.27;;;22.50;83.20;;;;;;5092865;28;20360;-79
2021/07/07 06:32:10;;;;;;;9.82;8.82;;;22.50;83.50;;;;;;5094450;27;20215;-82
2021/07/07 06:34:36;;;;;;;9.68;8.77;;;22.50;83.70;;;;;;5094482;28;20205;-78
2021/07/07 06:37:02;;;;;;;9.55;8.65;;;22.40;83.60;;;;;;5094236;28;20287;-79
2021/07/07 06:39:28;;;;;;;9.80;8.80;;;22.50;84.00;;;;;;5097900;28;20589;-81
2021/07/07 06:41:54;;;;;;;9.57;8.57;;;22.50;84.10;;;;;;5094932;28;20663;-79
2021/07/07 06:44:20;;;;;;;9.75;8.75;;;22.50;83.80;;;;;;5095691;28;20172;-80
2021/07/07 06:46:46;;;;;;;9.75;8.77;;;22.50;83.60;;;;;;5097916;28;20163;-79
2021/07/07 06:49:12;;;;;;;8.80;7.97;;;22.50;83.60;;;;;;5098201;28;20157;-81
2021/07/07 06:51:38;;;;;;;8.57;7.78;;;22.50;83.60;;;;;;5096005;28;20175;-78
2021/07/07 06:54:04;;;;;;;8.80;7.95;;;22.50;83.80;;;;;;5095157;28;20307;-82
2021/07/07 06:56:30;;;;;;;9.18;8.27;;;22.50;83.90;;;;;;5094384;28;20251;-83
2021/07/07 06:59:00;;;;;;;9.27;8.38;;;22.60;83.90;;;;;;5098748;28;20184;-82
2021/07/07 07:01:26;;;;;;;8.98;7.55;;;22.50;84.00;;;;;;5068068;28;20274;-77
2021/07/07 07:03:56;;;;;;;8.43;7.63;;;22.50;84.20;;;;;;5089463;28;20603;-77
2021/07/07 07:06:22;;;;;;;8.65;7.85;;;22.60;84.00;;;;;;5056600;28;20172;-77
2021/07/07 07:08:54;;;;;;;8.32;7.53;;;22.50;84.00;;;;;;5108029;28;20157;-77
2021/07/07 07:11:20;;;;;;;8.63;7.60;;;22.50;84.20;;;;;;5088762;28;20184;-77
2021/07/07 07:13:47;;;;;;;8.93;8.02;;;22.50;84.20;;;;;;5090097;28;20165;-78
2021/07/07 07:16:14;;;;;;;9.55;8.63;;;22.50;84.30;;;;;;5106904;28;20149;-77
2021/07/07 07:18:40;;;;;;;9.38;8.27;;;22.40;84.80;;;;;;5107300;28;20189;-77
2021/07/07 07:21:06;;;;;;;9.35;8.40;;;22.50;85.20;;;;;;5107322;28;20184;-77
2021/07/07 07:23:34;;;;;;;9.85;8.85;;;22.60;85.30;;;;;;5108228;28;20246;-77
2021/07/07 07:26:00;;;;;;;9.32;8.43;;;22.50;85.40;;;;;;5107382;28;20670;-77
2021/07/07 07:28:35;;;;;;;9.57;8.57;;;22.60;85.70;;;;;;5106980;28;20149;-77
2021/07/07 07:31:06;;;;;;;10.10;9.10;;;22.60;85.80;;;;;;5056575;28;20180;-79
2021/07/07 07:33:36;;;;;;;9.40;8.50;;;22.60;86.00;;;;;;5055671;28;20188;-77
2021/07/07 07:36:03;;;;;;;10.48;9.43;;;22.60;86.00;;;;;;5056060;28;20172;-77
2021/07/07 07:38:31;;;;;;;9.57;8.68;;;22.60;85.90;;;;;;5123800;28;20207;-77
2021/07/07 07:41:02;;;;;;;9.55;8.65;;;22.70;85.80;;;;;;5107074;28;20165;-78
2021/07/07 07:43:28;;;;;;;9.65;8.75;;;22.70;85.60;;;;;;5088922;28;20192;-77
2021/07/07 07:45:55;;;;;;;9.65;8.70;;;22.70;85.70;;;;;;5106000;28;20164;-77
2021/07/07 07:48:23;;;;;;;10.43;9.40;;;22.80;85.60;;;;;;5105797;28;20188;-77
2021/07/07 07:50:49;;;;;;;10.02;9.02;;;22.80;85.80;;;;;;5089621;28;20153;-77
2021/07/07 07:53:15;;;;;;;9.95;9.02;;;22.80;85.50;;;;;;5106367;28;20214;-77
2021/07/07 07:55:41;;;;;;;10.57;9.52;;;22.80;85.60;;;;;;5090738;28;20181;-77
2021/07/07 07:58:07;;;;;;;10.88;9.80;;;22.90;85.50;;;;;;5089393;28;20204;-80
2021/07/07 08:00:33;;;;;;;10.27;9.27;;;22.80;85.90;;;;;;5089419;28;20160;-77
2021/07/07 08:02:59;;;;;;;11.15;10.05;;;22.80;86.10;;;;;;5106253;28;20611;-77
2021/07/07 08:05:25;;;;;;;10.82;9.70;;;22.90;86.00;;;;;;5088727;28;20172;-77
2021/07/07 08:07:50;;;;;;;10.50;9.45;;;22.90;86.00;;;;;;5088763;28;20173;-77
2021/07/07 08:10:19;;;;;;;10.82;9.73;;;22.90;86.40;;;;;;5088789;28;20608;-79
2021/07/07 08:12:50;;;;;;;11.02;9.93;;;22.80;86.80;;;;;;5089364;28;20169;-77
2021/07/07 08:15:22;;;;;;;10.15;9.15;;;22.90;86.50;;;;;;5088235;28;20184;-77
2021/07/07 08:17:52;;;;;;;10.52;9.35;;;22.90;86.50;;;;;;5055277;28;20212;-77
2021/07/07 08:20:21;;;;;;;11.02;9.93;;;22.90;86.30;;;;;;5071696;28;20180;-77
2021/07/07 08:22:52;;;;;;;11.27;10.18;;;22.90;86.50;;;;;;5088364;28;20180;-77
2021/07/07 08:25:21;;;;;;;11.07;9.98;;;22.90;87.20;;;;;;5088763;28;20241;-77
2021/07/07 08:27:50;;;;;;;11.45;10.35;;;22.90;87.30;;;;;;5071602;28;20185;-77
2021/07/07 08:30:20;;;;;;;11.15;10.05;;;22.90;87.70;;;;;;5105577;28;20184;-76
2021/07/07 08:32:45;;;;;;;11.60;10.05;;;22.80;87.50;;;;;;5071302;28;20198;-76
2021/07/07 08:35:11;;;;;;;11.45;10.15;;;22.80;87.60;;;;;;5122552;28;20172;-76
2021/07/07 08:37:39;;;;;;;12.57;11.27;;;22.80;88.10;;;;;;5105201;28;20196;-76
2021/07/07 08:40:05;;;;;;;11.70;10.38;;;22.80;88.10;;;;;;5105828;28;20229;-76
2021/07/07 08:42:34;;;;;;;11.02;9.98;;;22.70;88.70;;;;;;5089016;28;20236;-77
2021/07/07 08:45:05;;;;;;;12.13;10.82;;;22.70;88.80;;;;;;5089969;28;20165;-76
2021/07/07 08:47:36;;;;;;;13.07;11.80;;;22.70;88.90;;;;;;5105422;28;20176;-77
2021/07/07 08:50:05;;;;;;;12.32;10.98;;;22.70;89.20;;;;;;5089672;28;20172;-77
2021/07/07 08:52:31;;;;;;;12.70;11.07;;;22.70;89.20;;;;;;5106940;28;20164;-77
2021/07/07 08:55:00;;;;;;;12.73;11.52;;;22.70;89.20;;;;;;5106838;28;20216;-77
2021/07/07 08:57:29;;;;;;;12.23;10.93;;;22.70;89.20;;;;;;5104437;28;20215;-77
2021/07/07 08:59:58;;;;;;;11.82;10.63;;;22.80;89.50;;;;;;5090660;28;20184;-77
2021/07/07 09:02:29;;;;;;;12.85;11.55;;;22.70;89.90;;;;;;5111204;28;20191;-77
2021/07/07 09:04:59;;;;;;;12.15;10.88;;;22.70;90.00;;;;;;5077533;28;20326;-77
2021/07/07 09:07:35;;;;;;;12.82;11.55;;;22.80;90.20;;;;;;5095193;28;20171;-77
2021/07/07 09:10:08;;;;;;;12.65;11.43;;;22.70;90.20;;;;;;5095344;28;20178;-77
2021/07/07 09:12:35;;;;;;;12.40;11.15;;;22.70;90.20;;;;;;5077688;28;20176;-77
2021/07/07 09:15:06;;;;;;;12.75;11.45;;;22.80;90.40;;;;;;5129768;27;20153;-77
2021/07/07 09:17:48;;;;;;;11.05;9.93;;;22.80;90.30;;;;;;5112441;28;20202;-77
2021/07/07 09:20:28;;;;;;;12.27;10.98;;;22.80;90.50;;;;;;5113376;28;20161;-78
2021/07/07 09:23:23;;;;;;;13.48;11.73;;;22.80;90.50;;;;;;5095358;28;20203;-77
2021/07/07 09:25:56;;;;;;;12.55;11.35;;;22.80;90.60;;;;;;5094529;28;20195;-77
2021/07/07 09:28:31;;;;;;;11.75;10.55;;;22.80;90.80;;;;;;5077757;28;20219;-77
2021/07/07 09:31:00;;;;;;;13.35;12.05;;;22.90;90.80;;;;;;5128304;27;20179;-77
2021/07/07 09:33:27;;;;;;;13.55;12.25;;;22.90;90.60;;;;;;5129853;27;20157;-77
2021/07/07 09:36:23;;;;;;;13.60;12.20;;;22.80;90.90;;;;;;5093517;28;20204;-77
2021/07/07 09:38:50;;;;;;;13.35;12.05;;;22.80;91.00;;;;;;5095327;28;20232;-78
2021/07/07 09:41:16;;;;;;;13.35;11.95;;;22.80;91.30;;;;;;5094814;28;20183;-76
2021/07/07 09:43:49;;;;;;;12.98;11.60;;;22.80;91.40;;;;;;5094162;28;20160;-77
2021/07/07 09:46:15;;;;;;;13.98;12.52;;;22.80;91.40;;;;;;5112147;28;20161;-77
2021/07/07 09:48:45;;;;;;;13.63;12.23;;;22.80;91.60;;;;;;5095052;28;20241;-77
2021/07/07 09:51:12;;;;;;;14.05;12.63;;;22.80;91.70;;;;;;5129140;27;20635;-77
2021/07/07 09:53:38;;;;;;;16.17;12.85;;;22.70;91.80;;;;;;5105420;28;20251;-77
2021/07/07 09:56:08;;;;;;;13.88;12.45;;;22.70;92.00;;;;;;5108045;28;20185;-77
2021/07/07 09:58:33;;;;;;;15.75;14.00;;;22.80;91.90;;;;;;5093745;28;20196;-77
2021/07/07 10:01:03;;;;;;;14.73;13.23;;;22.80;92.00;;;;;;5124287;28;20217;-77
2021/07/07 10:03:31;;;;;;;14.05;12.73;;;22.90;91.70;;;;;;5090304;28;20203;-76
2021/07/07 10:05:59;;;;;;;16.55;13.85;;;23.00;92.10;;;;;;5091381;28;20169;-76
2021/07/07 10:08:25;;;;;;;15.13;13.63;;;23.00;91.50;;;;;;5108706;28;20176;-77
2021/07/07 10:10:51;;;;;;;14.70;13.20;;;23.00;91.30;;;;;;5145045;27;20230;-77
2021/07/07 10:13:18;;;;;;;13.95;12.52;;;23.00;91.50;;;;;;5092126;28;20187;-77
2021/07/07 10:15:44;;;;;;;14.48;12.98;;;23.10;91.30;;;;;;5072441;28;20289;-77
2021/07/07 10:18:09;;;;;;;14.60;13.10;;;23.10;91.30;;;;;;5107780;28;20249;-78
2021/07/07 10:20:38;;;;;;;14.65;13.20;;;23.10;91.30;;;;;;5074755;28;20172;-77
2021/07/07 10:23:06;;;;;;;13.93;12.52;;;23.10;91.20;;;;;;5071940;28;20219;-77
2021/07/07 10:25:31;;;;;;;15.60;14.05;;;23.20;91.10;;;;;;5123603;28;20160;-77
2021/07/07 10:28:10;;;;;;;14.93;13.32;;;23.20;91.10;;;;;;5128487;27;20181;-77
2021/07/07 10:30:56;;;;;;;14.57;13.07;;;23.20;91.10;;;;;;5122646;28;20541;-77
2021/07/07 10:33:23;;;;;;;14.90;13.40;;;23.20;91.20;;;;;;5140757;27;20704;-78
2021/07/07 10:35:49;;;;;;;16.50;13.90;;;23.20;91.20;;;;;;5123383;28;20183;-77
2021/07/07 10:38:15;;;;;;;14.18;12.73;;;23.20;91.30;;;;;;5135134;27;20201;-77
2021/07/07 10:40:48;;;;;;;15.55;13.95;;;23.20;91.30;;;;;;5104253;28;20180;-77
2021/07/07 10:43:46;;;;;;;15.20;13.70;;;23.20;91.50;;;;;;5118524;27;20177;-76
2021/07/07 10:46:47;;;;;;;15.52;13.93;;;23.20;92.00;;;;;;5124267;28;20215;-76
2021/07/07 10:49:18;;;;;;;14.55;13.05;;;23.20;92.00;;;;;;5089693;28;20787;-77
2021/07/07 10:51:46;;;;;;;15.27;13.77;;;23.20;91.70;;;;;;5124697;27;20240;-77
2021/07/07 10:54:30;;;;;;;14.27;12.88;;;23.20;91.80;;;;;;5089718;28;20267;-78
2021/07/07 10:56:57;;;;;;;14.45;13.05;;;23.10;91.90;;;;;;5125608;28;20164;-77
2021/07/07 10:59:34;;;;;;;14.85;13.35;;;23.10;91.90;;;;;;5106868;28;20219;-76
2021/07/07 11:02:06;;;;;;;14.70;13.20;;;23.10;92.20;;;;;;5124338;28;20179;-76
2021/07/07 11:04:34;;;;;;;14.80;13.30;;;23.10;92.20;;;;;;5141083;27;20149;-77
2021/07/07 11:07:25;;;;;;;15.43;13.82;;;23.20;92.10;;;;;;5106120;28;20181;-77
2021/07/07 11:09:53;;;;;;;14.35;12.90;;;23.20;92.00;;;;;;5141940;27;20161;-75
2021/07/07 11:12:52;;;;;;;15.13;13.63;;;23.20;92.10;;;;;;5106580;28;20203;-77
2021/07/07 11:15:25;;;;;;;14.27;12.88;;;23.20;92.30;;;;;;5120770;28;20211;-77
2021/07/07 11:17:53;;;;;;;17.90;13.73;;;23.30;92.30;;;;;;5089380;28;20209;-77
2021/07/07 11:20:24;;;;;;;13.60;12.15;;;23.10;92.40;;;;;;5123513;28;20164;-77
2021/07/07 11:23:09;;;;;;;14.75;13.27;;;23.10;92.30;;;;;;5122904;28;20183;-77
2021/07/07 11:25:42;;;;;;;16.38;14.07;;;23.20;92.20;;;;;;5122585;28;20668;-77
2021/07/07 11:28:17;;;;;;;14.60;13.18;;;23.20;92.20;;;;;;5087917;28;20210;-77
2021/07/07 11:30:46;;;;;;;15.30;13.70;;;23.20;92.40;;;;;;5105107;28;20226;-77
2021/07/07 11:33:11;;;;;;;14.63;13.20;;;23.20;92.40;;;;;;5072009;28;20172;-78
2021/07/07 11:35:40;;;;;;;15.55;13.95;;;23.20;92.40;;;;;;5105128;28;20692;-77
2021/07/07 11:38:07;;;;;;;14.95;13.45;;;23.30;92.60;;;;;;5139606;27;20189;-78
2021/07/07 11:40:36;;;;;;;15.32;13.73;;;23.20;92.50;;;;;;5121085;28;20220;-76
2021/07/07 11:43:06;;;;;;;15.88;14.27;;;23.20;92.90;;;;;;5122100;28;20218;-79
2021/07/07 11:45:43;;;;;;;15.15;13.65;;;23.10;92.70;;;;;;5104786;28;20160;-78
2021/07/07 11:48:19;;;;;;;14.65;13.15;;;23.20;92.90;;;;;;5105473;28;20330;-77
2021/07/07 11:50:52;;;;;;;15.63;14.00;;;23.20;92.90;;;;;;5104873;28;20172;-76
2021/07/07 11:53:18;;;;;;;15.25;13.65;;;23.20;92.70;;;;;;5121276;28;20169;-78
2021/07/07 11:55:59;;;;;;;15.30;13.80;;;23.20;92.90;;;;;;5122043;28;20160;-78
2021/07/07 11:58:27;;;;;;;15.45;13.85;;;23.10;93.00;;;;;;5104431;28;20202;-77
2021/07/07 12:00:56;;;;;;;15.10;13.55;;;23.10;93.20;;;;;;5137956;27;20156;-79
2021/07/07 12:03:26;;;;;;;15.98;13.55;;;23.10;93.30;;;;;;5121772;28;20562;-80
2021/07/07 12:06:01;;;;;;;14.75;13.15;;;23.10;93.30;;;;;;5086635;28;20192;-78
2021/07/07 12:08:31;;;;;;;15.65;14.05;;;23.20;93.30;;;;;;5087098;28;20192;-77
2021/07/07 12:11:17;;;;;;;16.02;14.40;;;23.20;93.30;;;;;;5087652;28;20185;-78
2021/07/07 12:13:47;;;;;;;17.02;14.90;;;23.20;93.20;;;;;;5086210;28;20225;-78
2021/07/07 12:16:37;;;;;;;16.52;14.75;;;23.20;93.40;;;;;;5105924;28;20145;-78
2021/07/07 12:19:13;;;;;;;16.10;14.40;;;23.20;93.40;;;;;;5071750;28;20216;-77
2021/07/07 12:21:54;;;;;;;16.48;14.82;;;23.20;93.60;;;;;;5070059;28;20176;-78
2021/07/07 12:24:28;;;;;;;16.75;14.60;;;23.10;93.80;;;;;;5070329;28;20191;-80
2021/07/07 12:27:00;;;;;;;15.98;14.32;;;23.10;93.80;;;;;;5103455;28;20217;-78
2021/07/07 12:29:30;;;;;;;16.60;14.77;;;23.20;93.80;;;;;;5086227;28;20191;-77
2021/07/07 12:32:03;;;;;;;16.55;13.98;;;23.20;93.80;;;;;;5070131;28;20636;-79
2021/07/07 12:34:33;;;;;;;17.15;14.50;;;23.20;93.80;;;;;;5086822;28;20188;-77
2021/07/07 12:36:59;;;;;;;18.95;14.77;;;23.20;93.70;;;;;;5086378;28;20719;-77
2021/07/07 12:39:32;;;;;;;15.02;13.43;;;23.20;93.70;;;;;;5121942;28;20193;-79